Time;durP1;ratioP1;P1;durP2;ratioP2;P2;SDS_P1;SDS_P2;PMS_P1;PMS_P2;Temp;Humidity;BMP_temperature;BMP_pressure;BME280_temperature;BME280_humidity;BME280_pressure;Samples;Min_cycle;Max_cycle;Signal;HPM_P1;HPM_P2
2021/07/13 00:00:36;;;;;;;;;;;25.20;53.70;;;;;;5017448;28;87249;-46
2021/07/13 00:03:03;;;;;;;;;;;25.20;53.90;;;;;;5021836;28;88610;-46
2021/07/13 00:05:29;;;;;;;;;;;25.20;53.90;;;;;;5019461;28;90501;-47
2021/07/13 00:07:55;;;;;;;;;;;25.20;53.80;;;;;;5020564;28;87262;-46
2021/07/13 00:10:25;;;;;;;;;;;25.20;53.90;;;;;;5020459;28;89452;-46
2021/07/13 00:12:51;;;;;;;;;;;25.10;53.80;;;;;;5023595;28;88334;-46
2021/07/13 00:15:24;;;;;;;;;;;25.10;53.90;;;;;;5020232;28;89279;-46
2021/07/13 00:17:52;;;;;;;;;;;25.10;53.80;;;;;;5020386;28;88080;-48
2021/07/13 00:20:18;;;;;;;;;;;25.10;53.70;;;;;;5018000;28;87225;-46
2021/07/13 00:22:43;;;;;;;;;;;25.10;54.00;;;;;;5018856;28;86480;-46
2021/07/13 00:25:10;;;;;;;;;;;25.10;53.90;;;;;;5018057;28;88393;-46
2021/07/13 00:27:35;;;;;;;;;;;25.10;53.90;;;;;;5017313;28;88373;-47
2021/07/13 00:30:01;;;;;;;;;;;25.00;53.90;;;;;;5016982;28;88583;-47
2021/07/13 00:32:27;;;;;;;;;;;25.00;54.00;;;;;;5015889;28;87748;-47
2021/07/13 00:34:52;;;;;;;;;;;25.00;54.00;;;;;;5021613;28;87157;-47
2021/07/13 00:37:18;;;;;;;;;;;25.00;53.90;;;;;;5019264;28;88205;-46
2021/07/13 00:39:43;;;;;;;;;;;25.00;53.90;;;;;;5019780;28;87188;-47
2021/07/13 00:42:16;;;;;;;;;;;25.00;54.10;;;;;;5020996;28;87210;-48
2021/07/13 00:44:42;;;;;;;;;;;24.90;53.90;;;;;;5018278;28;87127;-46
2021/07/13 00:47:09;;;;;;;;;;;24.90;54.00;;;;;;5019683;28;86392;-47
2021/07/13 00:49:34;;;;;;;;;;;24.90;54.70;;;;;;5018971;28;87210;-46
2021/07/13 00:52:00;;;;;;;;;;;24.90;53.90;;;;;;5018327;28;89796;-46
2021/07/13 00:54:27;;;;;;;;;;;24.90;54.00;;;;;;5018740;28;88095;-46
2021/07/13 00:56:54;;;;;;;;;;;24.90;54.10;;;;;;5020940;28;88640;-47
2021/07/13 00:59:20;;;;;;;;;;;24.90;54.10;;;;;;5016134;28;87196;-46
2021/07/13 01:01:47;;;;;;;;;;;24.80;54.00;;;;;;5016956;28;88243;-47
2021/07/13 01:04:13;;;;;;;;;;;24.80;54.00;;;;;;5019963;28;89698;-47
2021/07/13 01:06:45;;;;;;;;;;;24.80;54.00;;;;;;5020215;28;88245;-46
2021/07/13 01:09:13;;;;;;;;;;;24.80;54.10;;;;;;5020451;28;87143;-48
2021/07/13 01:11:49;;;;;;;;;;;24.80;54.10;;;;;;5018444;28;87496;-47
2021/07/13 01:14:21;;;;;;;;;;;24.80;54.10;;;;;;5017690;28;87109;-46
2021/07/13 01:17:00;;;;;;;;;;;24.70;54.10;;;;;;5017774;28;87239;-46
2021/07/13 01:19:26;;;;;;;;;;;24.70;54.10;;;;;;5021348;28;88703;-49
2021/07/13 01:21:56;;;;;;;;;;;24.70;54.00;;;;;;5020621;28;88965;-47
2021/07/13 01:24:41;;;;;;;;;;;24.70;54.20;;;;;;5019186;28;87711;-47
2021/07/13 01:27:16;;;;;;;;;;;24.70;54.00;;;;;;5017747;28;87237;-46
2021/07/13 01:29:43;;;;;;;;;;;24.60;54.00;;;;;;5019438;28;88581;-46
2021/07/13 01:32:11;;;;;;;;;;;24.60;53.90;;;;;;5018407;28;89676;-47
2021/07/13 01:34:40;;;;;;;;;;;24.60;54.20;;;;;;5017041;28;87242;-46
2021/07/13 01:37:07;;;;;;;;;;;24.60;54.00;;;;;;5019479;28;88537;-47
2021/07/13 01:39:33;;;;;;;;;;;24.60;53.90;;;;;;5017990;28;88691;-47
2021/07/13 01:42:01;;;;;;;;;;;24.50;54.00;;;;;;5021092;28;87256;-47
2021/07/13 01:44:27;;;;;;;;;;;24.50;54.00;;;;;;5017848;28;91843;-49
2021/07/13 01:46:53;;;;;;;;;;;24.50;54.00;;;;;;5020650;28;88397;-46
2021/07/13 01:49:22;;;;;;;;;;;24.50;54.00;;;;;;5017608;28;88411;-47
2021/07/13 01:51:48;;;;;;;;;;;24.50;53.90;;;;;;5017390;28;88604;-46
2021/07/13 01:54:15;;;;;;;;;;;24.50;54.10;;;;;;5018361;28;87213;-47
2021/07/13 01:56:41;;;;;;;;;;;24.50;54.10;;;;;;5017342;28;88772;-47
2021/07/13 01:59:09;;;;;;;;;;;24.40;54.00;;;;;;5015388;28;89017;-46
2021/07/13 02:01:35;;;;;;;;;;;24.40;54.00;;;;;;5019234;28;86513;-46
2021/07/13 02:04:03;;;;;;;;;;;24.40;54.10;;;;;;5020878;28;87171;-47
2021/07/13 02:06:29;;;;;;;;;;;24.40;54.20;;;;;;5015652;28;89114;-46
2021/07/13 02:09:02;;;;;;;;;;;24.30;54.10;;;;;;5016899;28;89524;-46
2021/07/13 02:11:28;;;;;;;;;;;24.40;54.70;;;;;;5018925;28;88428;-46
2021/07/13 02:13:54;;;;;;;;;;;24.30;54.10;;;;;;5019899;28;87151;-47
2021/07/13 02:16:20;;;;;;;;;;;24.30;54.30;;;;;;5022897;28;88545;-46
2021/07/13 02:18:49;;;;;;;;;;;24.30;54.20;;;;;;5023185;28;89685;-47
2021/07/13 02:21:15;;;;;;;;;;;24.30;54.30;;;;;;5020780;28;88780;-46
2021/07/13 02:23:41;;;;;;;;;;;24.30;54.20;;;;;;5022532;28;87726;-47
2021/07/13 02:26:08;;;;;;;;;;;24.30;54.30;;;;;;5019978;28;86514;-46
2021/07/13 02:28:38;;;;;;;;;;;24.20;54.20;;;;;;5019094;28;87909;-46
2021/07/13 02:31:11;;;;;;;;;;;24.20;54.10;;;;;;5020615;28;88290;-46
2021/07/13 02:33:45;;;;;;;;;;;24.20;54.20;;;;;;5018623;28;89991;-48
2021/07/13 02:36:13;;;;;;;;;;;24.20;54.80;;;;;;5021373;28;88571;-46
2021/07/13 02:38:39;;;;;;;;;;;24.20;54.30;;;;;;5019435;28;89392;-47
2021/07/13 02:41:05;;;;;;;;;;;24.10;54.20;;;;;;5019307;28;88429;-46
2021/07/13 02:43:31;;;;;;;;;;;24.10;54.20;;;;;;5019323;28;87381;-46
2021/07/13 02:45:57;;;;;;;;;;;24.10;54.20;;;;;;5022535;28;89053;-47
2021/07/13 02:48:22;;;;;;;;;;;24.10;54.20;;;;;;5020842;28;88778;-46
2021/07/13 02:50:51;;;;;;;;;;;24.10;54.20;;;;;;5022116;28;87439;-46
2021/07/13 02:53:16;;;;;;;;;;;24.10;54.20;;;;;;5019322;28;87157;-47
2021/07/13 02:55:44;;;;;;;;;;;24.00;54.20;;;;;;5019681;28;87150;-47
2021/07/13 02:58:10;;;;;;;;;;;24.00;54.20;;;;;;5021903;28;89653;-46
2021/07/13 03:00:36;;;;;;;;;;;24.00;54.40;;;;;;5020921;28;88180;-47
2021/07/13 03:03:01;;;;;;;;;;;24.00;54.20;;;;;;5020063;28;87298;-46
2021/07/13 03:05:29;;;;;;;;;;;23.90;54.30;;;;;;5018254;28;89431;-46
2021/07/13 03:07:55;;;;;;;;;;;23.90;54.20;;;;;;5025908;28;88552;-46
2021/07/13 03:10:22;;;;;;;;;;;23.90;54.40;;;;;;5022367;28;88345;-46
2021/07/13 03:12:48;;;;;;;;;;;23.90;54.30;;;;;;5022564;28;87151;-47
2021/07/13 03:15:14;;;;;;;;;;;23.90;54.30;;;;;;5023321;28;87438;-47
2021/07/13 03:17:40;;;;;;;;;;;23.90;54.30;;;;;;5022068;28;88545;-47
2021/07/13 03:20:06;;;;;;;;;;;23.80;54.30;;;;;;5021514;28;87151;-47
2021/07/13 03:22:34;;;;;;;;;;;23.80;54.30;;;;;;5021853;28;88146;-47
2021/07/13 03:25:00;;;;;;;;;;;23.80;54.40;;;;;;5019460;28;88237;-47
2021/07/13 03:27:26;;;;;;;;;;;23.80;54.40;;;;;;5019722;28;87163;-47
2021/07/13 03:29:53;;;;;;;;;;;23.80;54.40;;;;;;5022698;28;87289;-47
2021/07/13 03:32:19;;;;;;;;;;;23.80;54.40;;;;;;5020086;28;87254;-47
2021/07/13 03:34:46;;;;;;;;;;;23.70;54.40;;;;;;5020399;28;87488;-47
2021/07/13 03:37:11;;;;;;;;;;;23.80;54.50;;;;;;5019382;28;88197;-47
2021/07/13 03:39:37;;;;;;;;;;;23.70;54.40;;;;;;5020386;28;86426;-47
2021/07/13 03:42:03;;;;;;;;;;;23.70;54.50;;;;;;5019331;28;87149;-46
2021/07/13 03:44:29;;;;;;;;;;;23.70;54.40;;;;;;5019505;28;87889;-46
2021/07/13 03:46:54;;;;;;;;;;;23.70;54.40;;;;;;5020424;28;88104;-47
2021/07/13 03:49:23;;;;;;;;;;;23.70;54.50;;;;;;5021225;28;90377;-47
2021/07/13 03:51:49;;;;;;;;;;;23.70;54.70;;;;;;5020214;28;89317;-47
2021/07/13 03:54:15;;;;;;;;;;;23.70;54.60;;;;;;5018821;28;87212;-46
2021/07/13 03:56:41;;;;;;;;;;;23.60;54.60;;;;;;5018549;28;88341;-46
2021/07/13 03:59:07;;;;;;;;;;;23.60;54.50;;;;;;5018698;28;87171;-46
2021/07/13 04:01:33;;;;;;;;;;;23.60;54.60;;;;;;5017783;28;88519;-47
2021/07/13 04:03:59;;;;;;;;;;;23.60;54.60;;;;;;5018334;28;86863;-48
2021/07/13 04:06:24;;;;;;;;;;;23.60;54.60;;;;;;5018701;28;87254;-47
2021/07/13 04:08:50;;;;;;;;;;;23.60;54.60;;;;;;5019959;28;87144;-47
2021/07/13 04:11:16;;;;;;;;;;;23.50;54.60;;;;;;5020107;28;89189;-47
2021/07/13 04:13:41;;;;;;;;;;;23.60;54.60;;;;;;5024402;28;87179;-47
2021/07/13 04:16:08;;;;;;;;;;;23.50;54.70;;;;;;5017988;28;88999;-46
2021/07/13 04:18:33;;;;;;;;;;;23.50;54.60;;;;;;5019874;28;88599;-48
2021/07/13 04:20:59;;;;;;;;;;;23.40;54.70;;;;;;5019871;28;88506;-47
2021/07/13 04:23:24;;;;;;;;;;;23.50;54.70;;;;;;5016815;28;88770;-47
2021/07/13 04:25:50;;;;;;;;;;;23.50;54.80;;;;;;5017070;28;87162;-46
2021/07/13 04:28:15;;;;;;;;;;;23.50;54.70;;;;;;5018757;28;89471;-46
2021/07/13 04:30:41;;;;;;;;;;;23.50;54.70;;;;;;5018671;28;87290;-46
2021/07/13 04:33:07;;;;;;;;;;;23.40;54.80;;;;;;5022470;28;87248;-47
2021/07/13 04:35:32;;;;;;;;;;;23.50;54.70;;;;;;5019217;28;90231;-47
2021/07/13 04:37:58;;;;;;;;;;;23.40;54.90;;;;;;5021201;28;88136;-46
2021/07/13 04:40:23;;;;;;;;;;;23.30;54.90;;;;;;5017541;28;88947;-46
2021/07/13 04:42:49;;;;;;;;;;;23.40;55.00;;;;;;5018281;28;88582;-49
2021/07/13 04:45:14;;;;;;;;;;;23.40;55.00;;;;;;5018297;28;87135;-47
2021/07/13 04:47:40;;;;;;;;;;;23.40;54.90;;;;;;5020093;28;88003;-46
2021/07/13 04:50:09;;;;;;;;;;;23.30;54.90;;;;;;5017352;28;88519;-48
2021/07/13 04:52:35;;;;;;;;;;;23.30;55.00;;;;;;5019207;28;86441;-47
2021/07/13 04:55:01;;;;;;;;;;;23.30;55.10;;;;;;5021596;28;87245;-46
2021/07/13 04:57:27;;;;;;;;;;;23.30;55.00;;;;;;5019077;28;87170;-47
2021/07/13 04:59:53;;;;;;;;;;;23.30;55.10;;;;;;5018251;28;88114;-47
2021/07/13 05:02:19;;;;;;;;;;;23.30;55.10;;;;;;5019430;28;89311;-47
2021/07/13 05:04:44;;;;;;;;;;;23.30;55.20;;;;;;5017796;28;87220;-46
2021/07/13 05:07:10;;;;;;;;;;;23.30;55.20;;;;;;5019996;28;88910;-46
2021/07/13 05:09:35;;;;;;;;;;;23.30;55.30;;;;;;5017805;28;88038;-48
2021/07/13 05:12:01;;;;;;;;;;;23.30;55.30;;;;;;5016824;28;87140;-46
2021/07/13 05:14:26;;;;;;;;;;;23.30;55.30;;;;;;5017138;28;87576;-47
2021/07/13 05:16:52;;;;;;;;;;;23.20;55.30;;;;;;5020764;28;87468;-47
2021/07/13 05:19:17;;;;;;;;;;;23.30;55.40;;;;;;5018899;28;87976;-46
2021/07/13 05:21:48;;;;;;;;;;;23.30;55.40;;;;;;5018457;28;88913;-46
2021/07/13 05:24:14;;;;;;;;;;;23.30;55.60;;;;;;5018213;28;88180;-47
2021/07/13 05:26:40;;;;;;;;;;;23.30;55.50;;;;;;5018387;28;87968;-46
2021/07/13 05:29:06;;;;;;;;;;;23.20;55.50;;;;;;5018341;28;88642;-47
2021/07/13 05:31:32;;;;;;;;;;;23.20;55.50;;;;;;5018337;28;87179;-46
2021/07/13 05:33:57;;;;;;;;;;;23.30;55.70;;;;;;5018547;28;87564;-46
2021/07/13 05:36:23;;;;;;;;;;;23.30;55.60;;;;;;5018592;28;87660;-47
2021/07/13 05:38:49;;;;;;;;;;;23.20;55.70;;;;;;5020267;28;87140;-47
2021/07/13 05:41:14;;;;;;;;;;;23.20;55.70;;;;;;5017975;28;88874;-46
2021/07/13 05:43:40;;;;;;;;;;;23.20;55.70;;;;;;5017064;28;87191;-46
2021/07/13 05:46:06;;;;;;;;;;;23.30;55.90;;;;;;5018431;28;87283;-46
2021/07/13 05:48:31;;;;;;;;;;;23.20;55.90;;;;;;5017487;28;89161;-46
2021/07/13 05:50:57;;;;;;;;;;;23.20;55.90;;;;;;5018956;28;87247;-47
2021/07/13 05:53:22;;;;;;;;;;;23.20;56.00;;;;;;5019731;28;87215;-47
2021/07/13 05:55:48;;;;;;;;;;;23.30;56.10;;;;;;5019942;28;89584;-48
2021/07/13 05:58:13;;;;;;;;;;;23.30;56.10;;;;;;5018019;28;88136;-47
2021/07/13 06:00:41;;;;;;;;;;;23.30;56.10;;;;;;5020562;28;88804;-46
2021/07/13 06:03:07;;;;;;;;;;;23.30;56.20;;;;;;5019262;28;87191;-47
2021/07/13 06:05:32;;;;;;;;;;;23.20;56.10;;;;;;5019919;28;87371;-47
2021/07/13 06:07:58;;;;;;;;;;;23.20;56.20;;;;;;5019928;28;88526;-46
2021/07/13 06:10:23;;;;;;;;;;;23.20;56.30;;;;;;5017147;28;88760;-46
2021/07/13 06:12:49;;;;;;;;;;;23.20;56.30;;;;;;5016426;28;88595;-46
2021/07/13 06:15:15;;;;;;;;;;;23.20;56.30;;;;;;5015682;28;88727;-46
2021/07/13 06:17:41;;;;;;;;;;;23.20;56.30;;;;;;5016872;28;88097;-46
2021/07/13 06:20:07;;;;;;;;;;;23.20;56.40;;;;;;5018246;28;88514;-46
2021/07/13 06:22:32;;;;;;;;;;;23.20;56.40;;;;;;5015725;28;87167;-47
2021/07/13 06:24:58;;;;;;;;;;;23.30;56.50;;;;;;5015354;28;87144;-46
2021/07/13 06:27:24;;;;;;;;;;;23.20;56.40;;;;;;5017218;28;90115;-49
2021/07/13 06:29:49;;;;;;;;;;;23.30;56.50;;;;;;5020309;28;87389;-50
2021/07/13 06:32:15;;;;;;;;;;;23.30;56.60;;;;;;5019634;28;87360;-46
2021/07/13 06:34:40;;;;;;;;;;;23.20;56.60;;;;;;5019294;28;88149;-47
2021/07/13 06:37:06;;;;;;;;;;;23.30;56.70;;;;;;5017592;28;89159;-47
2021/07/13 06:39:31;;;;;;;;;;;23.30;56.70;;;;;;5014974;28;87921;-46
2021/07/13 06:41:57;;;;;;;;;;;23.30;56.80;;;;;;5019137;28;88298;-47
2021/07/13 06:44:22;;;;;;;;;;;23.30;56.80;;;;;;5014855;28;88853;-46
2021/07/13 06:46:48;;;;;;;;;;;23.30;56.80;;;;;;5014672;28;91107;-46
2021/07/13 06:49:13;;;;;;;;;;;23.30;56.80;;;;;;5016303;28;87235;-46
2021/07/13 06:51:39;;;;;;;;;;;23.30;56.80;;;;;;5017623;28;87146;-47
2021/07/13 06:54:04;;;;;;;;;;;23.30;56.90;;;;;;5018351;28;88913;-46
2021/07/13 06:56:30;;;;;;;;;;;23.30;56.90;;;;;;5017735;28;87175;-46
2021/07/13 06:58:56;;;;;;;;;;;23.30;56.80;;;;;;5016933;28;87539;-46
2021/07/13 07:01:21;;;;;;;;;;;23.30;57.00;;;;;;5014510;28;88983;-47
2021/07/13 07:03:47;;;;;;;;;;;23.30;57.00;;;;;;5022329;28;87255;-46
2021/07/13 07:06:12;;;;;;;;;;;23.30;57.10;;;;;;5020566;28;88713;-46
2021/07/13 07:08:38;;;;;;;;;;;23.30;57.00;;;;;;5020995;28;87141;-46
2021/07/13 07:11:04;;;;;;;;;;;23.30;57.70;;;;;;5021302;28;89242;-46
2021/07/13 07:13:29;;;;;;;;;;;23.30;57.10;;;;;;5020363;28;89545;-47
2021/07/13 07:15:55;;;;;;;;;;;23.30;57.10;;;;;;5019899;28;87236;-47
2021/07/13 07:18:20;;;;;;;;;;;23.30;57.10;;;;;;5020402;28;88900;-47
2021/07/13 07:20:46;;;;;;;;;;;23.30;57.10;;;;;;5020714;28;88335;-46
2021/07/13 07:23:11;;;;;;;;;;;23.30;57.20;;;;;;5020284;28;87116;-47
2021/07/13 07:25:37;;;;;;;;;;;23.30;57.20;;;;;;5022992;28;88118;-46
2021/07/13 07:28:03;;;;;;;;;;;23.30;57.10;;;;;;5022299;28;87187;-47
2021/07/13 07:30:29;;;;;;;;;;;23.40;57.10;;;;;;5022339;28;87209;-46
2021/07/13 07:32:55;;;;;;;;;;;23.40;57.20;;;;;;5021754;28;89408;-47
2021/07/13 07:35:21;;;;;;;;;;;23.30;57.20;;;;;;5020890;28;87232;-46
2021/07/13 07:37:47;;;;;;;;;;;23.30;57.20;;;;;;5020182;28;88072;-47
2021/07/13 07:40:17;;;;;;;;;;;23.40;57.40;;;;;;5018177;28;89354;-46
2021/07/13 07:42:43;;;;;;;;;;;23.40;57.30;;;;;;5020272;28;86471;-47
2021/07/13 07:45:09;;;;;;;;;;;23.40;57.30;;;;;;5020723;28;87195;-46
2021/07/13 07:47:35;;;;;;;;;;;23.40;57.40;;;;;;5024033;28;87756;-47
2021/07/13 07:50:00;;;;;;;;;;;23.40;57.40;;;;;;5021322;28;88677;-47
2021/07/13 07:52:26;;;;;;;;;;;23.40;58.00;;;;;;5020924;28;88571;-46
2021/07/13 07:54:51;;;;;;;;;;;23.40;57.30;;;;;;5019029;28;88758;-46
2021/07/13 07:57:17;;;;;;;;;;;23.40;57.30;;;;;;5021291;28;88527;-46
2021/07/13 07:59:42;;;;;;;;;;;23.40;57.40;;;;;;5021227;28;88546;-46
2021/07/13 08:02:08;;;;;;;;;;;23.50;57.50;;;;;;5018092;28;87214;-47
2021/07/13 08:04:34;;;;;;;;;;;23.40;57.30;;;;;;5020565;28;89049;-48
2021/07/13 08:07:00;;;;;;;;;;;23.40;57.30;;;;;;5021617;28;88740;-46
2021/07/13 08:09:25;;;;;;;;;;;23.40;57.30;;;;;;5024922;28;87146;-46
2021/07/13 08:11:53;;;;;;;;;;;23.50;57.90;;;;;;5020992;28;88700;-46
2021/07/13 08:14:18;;;;;;;;;;;23.50;57.30;;;;;;5017290;28;88115;-46
2021/07/13 08:16:45;;;;;;;;;;;23.50;57.30;;;;;;5017348;28;87956;-46
2021/07/13 08:19:10;;;;;;;;;;;23.50;57.30;;;;;;5017726;28;89232;-46
2021/07/13 08:21:36;;;;;;;;;;;23.50;57.40;;;;;;5020599;28;88674;-47
2021/07/13 08:24:02;;;;;;;;;;;23.50;57.30;;;;;;5019746;28;87969;-47
2021/07/13 08:26:27;;;;;;;;;;;23.50;57.40;;;;;;5016741;28;90282;-46
2021/07/13 08:28:53;;;;;;;;;;;23.60;57.50;;;;;;5020671;28;87176;-46
2021/07/13 08:31:19;;;;;;;;;;;23.60;57.40;;;;;;5017175;28;87718;-46
2021/07/13 08:33:44;;;;;;;;;;;23.60;57.40;;;;;;5017839;28;87986;-46
2021/07/13 08:36:10;;;;;;;;;;;23.60;57.40;;;;;;5017023;28;87180;-46
2021/07/13 08:38:36;;;;;;;;;;;23.60;57.40;;;;;;5017176;28;89546;-47
2021/07/13 08:41:02;;;;;;;;;;;23.60;57.30;;;;;;5019016;28;87206;-46
2021/07/13 08:43:28;;;;;;;;;;;23.60;57.40;;;;;;5017741;28;87736;-46
2021/07/13 08:45:54;;;;;;;;;;;23.60;57.40;;;;;;5017067;28;89674;-46
2021/07/13 08:48:24;;;;;;;;;;;23.60;57.40;;;;;;5018289;28;88405;-47
2021/07/13 08:51:08;;;;;;;;;;;23.60;57.50;;;;;;5019840;28;87268;-47
2021/07/13 08:53:34;;;;;;;;;;;23.70;57.90;;;;;;5019987;28;87166;-46
2021/07/13 08:55:59;;;;;;;;;;;23.70;57.70;;;;;;5020814;28;86889;-47
2021/07/13 08:58:27;;;;;;;;;;;23.70;57.60;;;;;;5020377;28;88050;-47
2021/07/13 09:00:53;;;;;;;;;;;23.70;57.90;;;;;;5016601;28;87190;-46
2021/07/13 09:03:20;;;;;;;;;;;23.70;57.90;;;;;;5019643;28;88932;-47
2021/07/13 09:05:50;;;;;;;;;;;23.70;57.90;;;;;;5020229;28;89630;-48
2021/07/13 09:08:15;;;;;;;;;;;23.80;58.10;;;;;;5016448;28;87160;-46
2021/07/13 09:10:58;;;;;;;;;;;23.80;57.90;;;;;;5017644;28;89245;-47
2021/07/13 09:13:23;;;;;;;;;;;23.80;57.90;;;;;;5018947;28;89402;-46
2021/07/13 09:15:56;;;;;;;;;;;23.80;58.00;;;;;;5017120;28;89069;-46
2021/07/13 09:18:32;;;;;;;;;;;23.80;58.00;;;;;;5020126;28;87146;-47
2021/07/13 09:21:09;;;;;;;;;;;23.80;58.20;;;;;;5019884;28;86457;-47
2021/07/13 09:23:35;;;;;;;;;;;23.80;57.90;;;;;;5017882;28;87190;-47
2021/07/13 09:26:01;;;;;;;;;;;23.80;57.90;;;;;;5016557;28;88141;-48
2021/07/13 09:28:26;;;;;;;;;;;23.90;58.00;;;;;;5016970;28;88145;-46
2021/07/13 09:30:54;;;;;;;;;;;23.90;58.00;;;;;;5018640;28;90018;-47
2021/07/13 09:33:20;;;;;;;;;;;23.90;58.00;;;;;;5017157;28;89377;-47
2021/07/13 09:36:04;;;;;;;;;;;24.00;58.00;;;;;;5018982;28;87219;-48
2021/07/13 09:38:31;;;;;;;;;;;24.00;57.60;;;;;;5016749;28;89585;-47
2021/07/13 09:41:01;;;;;;;;;;;24.00;57.50;;;;;;5019472;28;88715;-47
2021/07/13 09:43:26;;;;;;;;;;;24.00;57.70;;;;;;5016897;28;88215;-47
2021/07/13 09:45:52;;;;;;;;;;;24.00;57.70;;;;;;5017417;28;87674;-46
2021/07/13 09:48:17;;;;;;;;;;;24.00;58.00;;;;;;5016942;28;87160;-46
2021/07/13 09:50:44;;;;;;;;;;;24.10;58.10;;;;;;5016299;28;87624;-46
2021/07/13 09:53:11;;;;;;;;;;;24.10;57.90;;;;;;5016268;28;90706;-47
2021/07/13 09:55:37;;;;;;;;;;;24.10;57.80;;;;;;5020521;28;87153;-47
2021/07/13 09:58:09;;;;;;;;;;;24.10;57.50;;;;;;5021584;28;88660;-47
2021/07/13 10:00:34;;;;;;;;;;;24.10;57.50;;;;;;5018907;28;87165;-47
2021/07/13 10:03:01;;;;;;;;;;;24.20;57.80;;;;;;5019357;28;87179;-47
2021/07/13 10:05:27;;;;;;;;;;;24.20;57.80;;;;;;5017638;28;88304;-47
2021/07/13 10:07:53;;;;;;;;;;;24.20;57.70;;;;;;5017354;28;87183;-46
2021/07/13 10:10:20;;;;;;;;;;;24.20;57.60;;;;;;5017917;28;88062;-46
2021/07/13 10:12:46;;;;;;;;;;;24.30;57.30;;;;;;5016672;28;87609;-47
2021/07/13 10:15:12;;;;;;;;;;;24.20;57.00;;;;;;5017382;28;87184;-47
2021/07/13 10:17:38;;;;;;;;;;;24.30;57.10;;;;;;5018110;28;88084;-46
2021/07/13 10:20:12;;;;;;;;;;;24.30;57.10;;;;;;5021848;28;88151;-47
2021/07/13 10:22:39;;;;;;;;;;;24.30;56.90;;;;;;5016389;28;89095;-46
2021/07/13 10:25:05;;;;;;;;;;;24.30;57.20;;;;;;5019600;28;88632;-46
2021/07/13 10:27:32;;;;;;;;;;;24.30;57.30;;;;;;5017956;28;88725;-46
2021/07/13 10:30:08;;;;;;;;;;;24.40;56.90;;;;;;5019864;28;87166;-47
2021/07/13 10:32:41;;;;;;;;;;;24.40;57.10;;;;;;5018216;28;89723;-47
2021/07/13 10:35:07;;;;;;;;;;;24.40;56.80;;;;;;5019487;28;86420;-47
2021/07/13 10:37:37;;;;;;;;;;;24.50;56.90;;;;;;5022262;28;87184;-47
2021/07/13 10:40:10;;;;;;;;;;;24.50;56.70;;;;;;5022572;28;89096;-49
2021/07/13 10:42:41;;;;;;;;;;;24.50;56.70;;;;;;5021512;28;88592;-46
2021/07/13 10:45:34;;;;;;;;;;;24.50;57.00;;;;;;5020477;28;90168;-46
2021/07/13 10:47:59;;;;;;;;;;;24.60;57.00;;;;;;5017146;28;87123;-46
2021/07/13 10:50:25;;;;;;;;;;;24.60;57.10;;;;;;5020737;28;87174;-47
2021/07/13 10:53:02;;;;;;;;;;;24.60;57.00;;;;;;5021464;28;88221;-47
2021/07/13 10:55:31;;;;;;;;;;;24.60;56.80;;;;;;5018993;28;87300;-46
2021/07/13 10:58:09;;;;;;;;;;;24.60;56.70;;;;;;5022867;28;87186;-46
2021/07/13 11:00:58;;;;;;;;;;;24.70;56.90;;;;;;5019951;28;86958;-47
2021/07/13 11:03:32;;;;;;;;;;;24.70;56.60;;;;;;5025579;28;87182;-48
2021/07/13 11:06:01;;;;;;;;;;;24.70;56.90;;;;;;5017986;28;87562;-47
2021/07/13 11:08:45;;;;;;;;;;;24.80;56.80;;;;;;5019890;28;88119;-46
2021/07/13 11:11:16;;;;;;;;;;;24.80;56.70;;;;;;5022832;28;89718;-48
2021/07/13 11:13:42;;;;;;;;;;;24.80;56.60;;;;;;5022388;28;89510;-49
2021/07/13 11:16:09;;;;;;;;;;;24.80;56.60;;;;;;5022629;28;88828;-46
2021/07/13 11:18:35;;;;;;;;;;;24.80;56.50;;;;;;5022051;28;88402;-46
2021/07/13 11:21:17;;;;;;;;;;;24.80;56.90;;;;;;5022377;28;88307;-48
2021/07/13 11:23:44;;;;;;;;;;;24.80;56.90;;;;;;5022336;28;87173;-48
2021/07/13 11:26:10;;;;;;;;;;;24.80;56.70;;;;;;5025459;28;88763;-48
2021/07/13 11:28:36;;;;;;;;;;;24.90;56.90;;;;;;5020480;28;87235;-47
2021/07/13 11:31:03;;;;;;;;;;;24.90;56.90;;;;;;5021393;28;88104;-47
2021/07/13 11:33:29;;;;;;;;;;;24.90;56.60;;;;;;5020202;28;88687;-47
2021/07/13 11:35:58;;;;;;;;;;;24.90;56.70;;;;;;5022002;28;87140;-47
2021/07/13 11:38:27;;;;;;;;;;;24.90;56.70;;;;;;5018488;28;88843;-47
2021/07/13 11:41:09;;;;;;;;;;;25.00;56.90;;;;;;5020896;28;89140;-46
2021/07/13 11:43:35;;;;;;;;;;;25.00;56.80;;;;;;5020633;28;87153;-47
2021/07/13 11:46:13;;;;;;;;;;;25.00;56.80;;;;;;5021288;28;88558;-47
2021/07/13 11:48:38;;;;;;;;;;;25.10;56.80;;;;;;5020538;28;89673;-46
2021/07/13 11:51:04;;;;;;;;;;;25.10;56.60;;;;;;5020007;28;88925;-46
2021/07/13 11:53:31;;;;;;;;;;;25.10;56.30;;;;;;5020220;28;88187;-47
2021/07/13 11:56:01;;;;;;;;;;;25.10;56.30;;;;;;5019253;28;87159;-46
2021/07/13 11:58:30;;;;;;;;;;;25.20;56.40;;;;;;5021841;28;88114;-48
2021/07/13 12:01:14;;;;;;;;;;;25.20;56.10;;;;;;5018195;28;89136;-46
2021/07/13 12:03:40;;;;;;;;;;;25.20;56.40;;;;;;5020277;28;87330;-47
2021/07/13 12:06:12;;;;;;;;;;;25.20;56.20;;;;;;5019301;28;87712;-47
2021/07/13 12:08:38;;;;;;;;;;;25.20;55.80;;;;;;5017214;28;87633;-47
2021/07/13 12:11:04;;;;;;;;;;;25.30;56.00;;;;;;5021894;28;87619;-47
2021/07/13 12:13:30;;;;;;;;;;;25.30;56.20;;;;;;5017882;28;89393;-47
2021/07/13 12:16:16;;;;;;;;;;;25.30;56.20;;;;;;5018228;28;86498;-47
2021/07/13 12:18:41;;;;;;;;;;;25.30;55.70;;;;;;5019592;28;87126;-47
2021/07/13 12:21:07;;;;;;;;;;;25.40;55.40;;;;;;5019946;28;88026;-47
2021/07/13 12:23:33;;;;;;;;;;;25.40;55.80;;;;;;5020791;28;88139;-47
2021/07/13 12:26:33;;;;;;;;;;;25.40;55.40;;;;;;5020947;28;88410;-46
2021/07/13 12:29:02;;;;;;;;;;;25.40;55.60;;;;;;4976840;28;89501;-47
2021/07/13 12:31:27;;;;;;;;;;;25.40;55.40;;;;;;5009972;28;87159;-46
2021/07/13 12:33:53;;;;;;;;;;;25.40;55.90;;;;;;5019914;28;88891;-46
2021/07/13 12:36:26;;;;;;;;;;;25.40;56.10;;;;;;5017488;28;87267;-47
2021/07/13 12:38:52;;;;;;;;;;;25.50;55.40;;;;;;5018456;28;89033;-49
2021/07/13 12:41:18;;;;;;;;;;;25.50;55.70;;;;;;5016968;28;89700;-46
2021/07/13 12:43:48;;;;;;;;;;;25.50;55.20;;;;;;5018139;28;88712;-47
2021/07/13 12:46:31;;;;;;;;;;;25.60;55.10;;;;;;5016471;28;88663;-46
2021/07/13 12:48:57;;;;;;;;;;;25.60;55.30;;;;;;5018388;28;88783;-47
2021/07/13 12:51:24;;;;;;;;;;;25.60;55.30;;;;;;5018414;28;87165;-47
2021/07/13 12:54:05;;;;;;;;;;;25.60;55.10;;;;;;5020115;28;87228;-47
2021/07/13 12:56:31;;;;;;;;;;;25.60;55.40;;;;;;5017673;28;87235;-47
2021/07/13 12:59:03;;;;;;;;;;;25.70;54.30;;;;;;5016643;28;87177;-46
2021/07/13 13:01:29;;;;;;;;;;;25.70;54.80;;;;;;5020247;28;88054;-47
2021/07/13 13:04:08;;;;;;;;;;;25.70;54.40;;;;;;5021057;28;87174;-47
2021/07/13 13:06:35;;;;;;;;;;;25.70;55.10;;;;;;5017774;28;88477;-46
2021/07/13 13:09:06;;;;;;;;;;;25.70;55.10;;;;;;5016671;28;89168;-46
2021/07/13 13:11:35;;;;;;;;;;;25.80;55.10;;;;;;5017392;28;87149;-46
2021/07/13 13:14:02;;;;;;;;;;;25.80;54.70;;;;;;5019276;28;88087;-47
2021/07/13 13:16:29;;;;;;;;;;;25.90;54.50;;;;;;5020906;28;89113;-47
2021/07/13 13:18:55;;;;;;;;;;;25.90;54.70;;;;;;5017758;28;88792;-46
2021/07/13 13:21:21;;;;;;;;;;;25.90;54.90;;;;;;5017942;28;88668;-47
2021/07/13 13:23:49;;;;;;;;;;;25.90;55.00;;;;;;5019103;28;87159;-47
2021/07/13 13:26:15;;;;;;;;;;;26.00;54.70;;;;;;5016498;28;89020;-46
2021/07/13 13:28:40;;;;;;;;;;;26.00;54.10;;;;;;5017164;28;89116;-47
2021/07/13 13:31:06;;;;;;;;;;;26.10;54.40;;;;;;5019388;28;86496;-47
2021/07/13 13:33:32;;;;;;;;;;;26.10;54.10;;;;;;5018835;28;87140;-47
2021/07/13 13:40:59;;;;;;;;;;;26.20;53.50;;;;;;5016898;28;88069;-47
2021/07/13 13:43:25;;;;;;;;;;;26.20;53.00;;;;;;5019971;28;87217;-47
2021/07/13 13:45:51;;;;;;;;;;;26.20;52.50;;;;;;5019944;28;87252;-47
2021/07/13 13:48:16;;;;;;;;;;;26.30;51.30;;;;;;5019025;28;88162;-47
2021/07/13 13:50:42;;;;;;;;;;;26.40;51.70;;;;;;5018747;28;87196;-47
2021/07/13 13:53:08;;;;;;;;;;;26.40;51.90;;;;;;5017910;28;87477;-47
2021/07/13 13:55:33;;;;;;;;;;;26.40;51.00;;;;;;5017087;28;88625;-47
2021/07/13 13:57:59;;;;;;;;;;;26.40;51.20;;;;;;5016427;28;87268;-46
2021/07/13 14:00:24;;;;;;;;;;;26.40;52.40;;;;;;5018280;28;87284;-46
2021/07/13 14:02:50;;;;;;;;;;;26.50;52.40;;;;;;5018910;28;88621;-47
2021/07/13 14:05:17;;;;;;;;;;;26.50;51.10;;;;;;5019718;28;90002;-47
2021/07/13 14:07:43;;;;;;;;;;;26.60;51.80;;;;;;5017146;28;89055;-47
2021/07/13 14:10:09;;;;;;;;;;;26.60;51.00;;;;;;5016137;28;87238;-46
2021/07/13 14:12:34;;;;;;;;;;;26.60;50.60;;;;;;5019442;28;88891;-47
2021/07/13 14:15:00;;;;;;;;;;;26.70;49.90;;;;;;5018903;28;89888;-47
2021/07/13 14:17:26;;;;;;;;;;;26.70;51.10;;;;;;5021065;28;88607;-46
2021/07/13 14:19:52;;;;;;;;;;;26.80;51.70;;;;;;5023881;28;88821;-47
2021/07/13 14:22:18;;;;;;;;;;;26.80;51.20;;;;;;5024371;28;87158;-47